sensor_id;sensor_type;location;lat;lon;timestamp;pressure;altitude;pressure_sealevel;temperature
76713;BMP280;65640;43.154;25.658;2023-12-14T00:00:14;99550.75;;;7.13
76713;BMP280;65640;43.154;25.658;2023-12-14T00:02:40;99551.53;;;7.08
76713;BMP280;65640;43.154;25.658;2023-12-14T00:05:05;99555.19;;;7.12
76713;BMP280;65640;43.154;25.658;2023-12-14T00:07:31;99547.16;;;7.04
76713;BMP280;65640;43.154;25.658;2023-12-14T00:09:56;99541.41;;;7.12
76713;BMP280;65640;43.154;25.658;2023-12-14T00:12:21;99553.63;;;7.16
76713;BMP280;65640;43.154;25.658;2023-12-14T00:14:46;99544.78;;;7.17
76713;BMP280;65640;43.154;25.658;2023-12-14T00:17:12;99556.50;;;7.15
76713;BMP280;65640;43.154;25.658;2023-12-14T00:19:37;99560.13;;;7.14
76713;BMP280;65640;43.154;25.658;2023-12-14T00:22:02;99551.28;;;7.15
76713;BMP280;65640;43.154;25.658;2023-12-14T00:24:27;99553.88;;;7.10
76713;BMP280;65640;43.154;25.658;2023-12-14T00:26:53;99552.59;;;7.12
76713;BMP280;65640;43.154;25.658;2023-12-14T00:29:18;99559.13;;;7.00
76713;BMP280;65640;43.154;25.658;2023-12-14T00:31:43;99557.59;;;6.94
76713;BMP280;65640;43.154;25.658;2023-12-14T00:34:09;99557.84;;;6.92
76713;BMP280;65640;43.154;25.658;2023-12-14T00:36:34;99546.88;;;7.00
76713;BMP280;65640;43.154;25.658;2023-12-14T00:38:59;99542.47;;;7.01
76713;BMP280;65640;43.154;25.658;2023-12-14T00:41:24;99557.56;;;6.99
76713;BMP280;65640;43.154;25.658;2023-12-14T00:43:50;99558.63;;;6.87
76713;BMP280;65640;43.154;25.658;2023-12-14T00:46:15;99553.19;;;6.94
76713;BMP280;65640;43.154;25.658;2023-12-14T00:48:40;99559.66;;;6.97
76713;BMP280;65640;43.154;25.658;2023-12-14T00:51:05;99566.69;;;6.91
76713;BMP280;65640;43.154;25.658;2023-12-14T00:53:31;99559.94;;;6.95
76713;BMP280;65640;43.154;25.658;2023-12-14T00:55:56;99567.50;;;6.81
76713;BMP280;65640;43.154;25.658;2023-12-14T00:58:21;99557.06;;;6.92
76713;BMP280;65640;43.154;25.658;2023-12-14T01:00:47;99567.44;;;7.07
76713;BMP280;65640;43.154;25.658;2023-12-14T01:03:12;99568.75;;;7.04
76713;BMP280;65640;43.154;25.658;2023-12-14T01:05:37;99551.81;;;7.02
76713;BMP280;65640;43.154;25.658;2023-12-14T01:08:03;99544.06;;;6.92
76713;BMP280;65640;43.154;25.658;2023-12-14T01:10:28;99535.47;;;6.96
76713;BMP280;65640;43.154;25.658;2023-12-14T01:12:53;99538.34;;;6.84
76713;BMP280;65640;43.154;25.658;2023-12-14T01:15:19;99538.34;;;6.79
76713;BMP280;65640;43.154;25.658;2023-12-14T01:17:44;99549.28;;;6.81
76713;BMP280;65640;43.154;25.658;2023-12-14T01:20:10;99536.25;;;6.86
76713;BMP280;65640;43.154;25.658;2023-12-14T01:22:35;99531.31;;;6.95
76713;BMP280;65640;43.154;25.658;2023-12-14T01:25:01;99523.00;;;6.93
76713;BMP280;65640;43.154;25.658;2023-12-14T01:27:26;99515.16;;;6.98
76713;BMP280;65640;43.154;25.658;2023-12-14T01:29:51;99520.31;;;7.08
76713;BMP280;65640;43.154;25.658;2023-12-14T01:32:17;99523.69;;;7.14
76713;BMP280;65640;43.154;25.658;2023-12-14T01:34:42;99524.75;;;7.18
76713;BMP280;65640;43.154;25.658;2023-12-14T01:37:07;99520.31;;;7.13
76713;BMP280;65640;43.154;25.658;2023-12-14T01:39:32;99518.75;;;7.17
76713;BMP280;65640;43.154;25.658;2023-12-14T01:41:58;99517.44;;;7.20
76713;BMP280;65640;43.154;25.658;2023-12-14T01:44:23;99515.78;;;7.34
76713;BMP280;65640;43.154;25.658;2023-12-14T01:46:48;99531.09;;;7.46
76713;BMP280;65640;43.154;25.658;2023-12-14T01:49:14;99525.59;;;7.52
76713;BMP280;65640;43.154;25.658;2023-12-14T01:51:39;99523.28;;;7.46
76713;BMP280;65640;43.154;25.658;2023-12-14T01:54:04;99523.84;;;7.43
76713;BMP280;65640;43.154;25.658;2023-12-14T01:56:30;99516.72;;;7.58
76713;BMP280;65640;43.154;25.658;2023-12-14T01:58:55;99521.66;;;7.60
76713;BMP280;65640;43.154;25.658;2023-12-14T02:01:22;99509.22;;;7.52
76713;BMP280;65640;43.154;25.658;2023-12-14T02:03:50;99511.28;;;7.50
76713;BMP280;65640;43.154;25.658;2023-12-14T02:06:17;99511.66;;;7.28
76713;BMP280;65640;43.154;25.658;2023-12-14T02:08:42;99509.63;;;7.20
76713;BMP280;65640;43.154;25.658;2023-12-14T02:11:07;99510.13;;;7.22
76713;BMP280;65640;43.154;25.658;2023-12-14T02:13:33;99508.81;;;7.24
76713;BMP280;65640;43.154;25.658;2023-12-14T02:15:58;99511.97;;;7.21
76713;BMP280;65640;43.154;25.658;2023-12-14T02:18:24;99509.59;;;7.25
76713;BMP280;65640;43.154;25.658;2023-12-14T02:20:49;99497.25;;;7.46
76713;BMP280;65640;43.154;25.658;2023-12-14T02:23:14;99503.75;;;7.48
76713;BMP280;65640;43.154;25.658;2023-12-14T02:25:39;99510.84;;;7.43
76713;BMP280;65640;43.154;25.658;2023-12-14T02:28:05;99503.03;;;7.38
76713;BMP280;65640;43.154;25.658;2023-12-14T02:30:30;99497.50;;;7.49
76713;BMP280;65640;43.154;25.658;2023-12-14T02:32:55;99487.41;;;7.43
76713;BMP280;65640;43.154;25.658;2023-12-14T02:35:21;99488.06;;;7.58
76713;BMP280;65640;43.154;25.658;2023-12-14T02:37:47;99498.69;;;7.67
76713;BMP280;65640;43.154;25.658;2023-12-14T02:40:13;99486.78;;;7.95
76713;BMP280;65640;43.154;25.658;2023-12-14T02:42:38;99478.44;;;7.93
76713;BMP280;65640;43.154;25.658;2023-12-14T02:45:04;99477.13;;;7.95
76713;BMP280;65640;43.154;25.658;2023-12-14T02:47:29;99477.78;;;8.11
76713;BMP280;65640;43.154;25.658;2023-12-14T02:49:55;99479.56;;;8.16
76713;BMP280;65640;43.154;25.658;2023-12-14T02:52:20;99474.53;;;8.24
76713;BMP280;65640;43.154;25.658;2023-12-14T02:54:46;99482.31;;;8.29
76713;BMP280;65640;43.154;25.658;2023-12-14T02:57:11;99493.53;;;8.54
76713;BMP280;65640;43.154;25.658;2023-12-14T02:59:36;99482.47;;;8.62
76713;BMP280;65640;43.154;25.658;2023-12-14T03:02:01;99482.84;;;8.55
76713;BMP280;65640;43.154;25.658;2023-12-14T03:04:27;99470.00;;;8.59
76713;BMP280;65640;43.154;25.658;2023-12-14T03:06:52;99473.56;;;8.68
76713;BMP280;65640;43.154;25.658;2023-12-14T03:09:17;99463.22;;;8.58
76713;BMP280;65640;43.154;25.658;2023-12-14T03:11:44;99462.69;;;8.61
76713;BMP280;65640;43.154;25.658;2023-12-14T03:14:09;99460.34;;;8.59
76713;BMP280;65640;43.154;25.658;2023-12-14T03:16:35;99463.09;;;8.49
76713;BMP280;65640;43.154;25.658;2023-12-14T03:19:00;99459.13;;;8.52
76713;BMP280;65640;43.154;25.658;2023-12-14T03:21:26;99458.94;;;8.48
76713;BMP280;65640;43.154;25.658;2023-12-14T03:23:51;99466.94;;;8.57
76713;BMP280;65640;43.154;25.658;2023-12-14T03:26:17;99466.09;;;8.61
76713;BMP280;65640;43.154;25.658;2023-12-14T03:28:42;99468.34;;;8.68
76713;BMP280;65640;43.154;25.658;2023-12-14T03:31:09;99475.13;;;8.69
76713;BMP280;65640;43.154;25.658;2023-12-14T03:33:35;99459.41;;;8.74
76713;BMP280;65640;43.154;25.658;2023-12-14T03:36:01;99466.19;;;8.75
76713;BMP280;65640;43.154;25.658;2023-12-14T03:38:27;99467.81;;;8.71
76713;BMP280;65640;43.154;25.658;2023-12-14T03:40:52;99465.19;;;8.71
76713;BMP280;65640;43.154;25.658;2023-12-14T03:43:19;99454.16;;;8.79
76713;BMP280;65640;43.154;25.658;2023-12-14T03:45:44;99452.50;;;8.83
76713;BMP280;65640;43.154;25.658;2023-12-14T03:48:10;99463.88;;;8.92
76713;BMP280;65640;43.154;25.658;2023-12-14T03:50:35;99459.78;;;8.86
76713;BMP280;65640;43.154;25.658;2023-12-14T03:53:00;99470.13;;;8.72
76713;BMP280;65640;43.154;25.658;2023-12-14T03:55:26;99473.84;;;8.66
76713;BMP280;65640;43.154;25.658;2023-12-14T03:57:51;99473.13;;;8.61
76713;BMP280;65640;43.154;25.658;2023-12-14T04:00:16;99464.19;;;8.67
76713;BMP280;65640;43.154;25.658;2023-12-14T04:02:41;99466.19;;;8.75
76713;BMP280;65640;43.154;25.658;2023-12-14T04:05:07;99465.13;;;8.76
76713;BMP280;65640;43.154;25.658;2023-12-14T04:07:34;99463.31;;;8.76
76713;BMP280;65640;43.154;25.658;2023-12-14T04:10:01;99450.50;;;8.80
76713;BMP280;65640;43.154;25.658;2023-12-14T04:12:26;99453.78;;;8.85
76713;BMP280;65640;43.154;25.658;2023-12-14T04:14:51;99450.41;;;9.04
76713;BMP280;65640;43.154;25.658;2023-12-14T04:17:16;99440.69;;;9.09
76713;BMP280;65640;43.154;25.658;2023-12-14T04:19:42;99445.69;;;9.06
76713;BMP280;65640;43.154;25.658;2023-12-14T04:22:07;99451.69;;;9.06
76713;BMP280;65640;43.154;25.658;2023-12-14T04:24:32;99447.94;;;9.12
76713;BMP280;65640;43.154;25.658;2023-12-14T04:26:57;99457.34;;;9.13
76713;BMP280;65640;43.154;25.658;2023-12-14T04:29:23;99450.28;;;9.14
76713;BMP280;65640;43.154;25.658;2023-12-14T04:31:48;99446.84;;;9.18
76713;BMP280;65640;43.154;25.658;2023-12-14T04:34:13;99455.59;;;9.27
76713;BMP280;65640;43.154;25.658;2023-12-14T04:36:44;99455.16;;;9.20
76713;BMP280;65640;43.154;25.658;2023-12-14T04:39:10;99454.84;;;9.03
76713;BMP280;65640;43.154;25.658;2023-12-14T04:41:35;99452.88;;;8.95
76713;BMP280;65640;43.154;25.658;2023-12-14T04:44:00;99459.44;;;8.93
76713;BMP280;65640;43.154;25.658;2023-12-14T04:46:25;99453.00;;;8.85
76713;BMP280;65640;43.154;25.658;2023-12-14T04:48:51;99459.78;;;8.86
76713;BMP280;65640;43.154;25.658;2023-12-14T04:51:16;99457.09;;;8.91
76713;BMP280;65640;43.154;25.658;2023-12-14T04:53:41;99458.13;;;8.95
76713;BMP280;65640;43.154;25.658;2023-12-14T04:56:12;99451.84;;;8.96
76713;BMP280;65640;43.154;25.658;2023-12-14T04:58:38;99453.41;;;8.97
76713;BMP280;65640;43.154;25.658;2023-12-14T05:01:03;99459.78;;;8.86
76713;BMP280;65640;43.154;25.658;2023-12-14T05:03:29;99451.56;;;8.79
76713;BMP280;65640;43.154;25.658;2023-12-14T05:05:54;99453.41;;;8.73
76713;BMP280;65640;43.154;25.658;2023-12-14T05:08:19;99457.31;;;8.76
76713;BMP280;65640;43.154;25.658;2023-12-14T05:10:45;99464.09;;;8.77
76713;BMP280;65640;43.154;25.658;2023-12-14T05:13:10;99449.50;;;8.95
76713;BMP280;65640;43.154;25.658;2023-12-14T05:15:35;99452.88;;;8.95
76713;BMP280;65640;43.154;25.658;2023-12-14T05:18:00;99449.50;;;9.13
76713;BMP280;65640;43.154;25.658;2023-12-14T05:20:26;99455.75;;;9.17
76713;BMP280;65640;43.154;25.658;2023-12-14T05:22:51;99448.38;;;9.19
76713;BMP280;65640;43.154;25.658;2023-12-14T05:25:16;99437.50;;;9.31
76713;BMP280;65640;43.154;25.658;2023-12-14T05:27:42;99442.03;;;9.25
76713;BMP280;65640;43.154;25.658;2023-12-14T05:30:07;99449.66;;;9.22
76713;BMP280;65640;43.154;25.658;2023-12-14T05:32:32;99446.69;;;9.10
76713;BMP280;65640;43.154;25.658;2023-12-14T05:34:58;99456.28;;;8.96
76713;BMP280;65640;43.154;25.658;2023-12-14T05:37:24;99459.25;;;8.89
76713;BMP280;65640;43.154;25.658;2023-12-14T05:39:50;99455.72;;;8.99
76713;BMP280;65640;43.154;25.658;2023-12-14T05:42:18;99448.47;;;9.14
76713;BMP280;65640;43.154;25.658;2023-12-14T05:44:43;99449.38;;;9.23
76713;BMP280;65640;43.154;25.658;2023-12-14T05:47:10;99447.31;;;9.20
76713;BMP280;65640;43.154;25.658;2023-12-14T05:49:35;99454.03;;;9.26
76713;BMP280;65640;43.154;25.658;2023-12-14T05:52:00;99455.66;;;9.41
76713;BMP280;65640;43.154;25.658;2023-12-14T05:54:26;99447.06;;;9.22
76713;BMP280;65640;43.154;25.658;2023-12-14T05:56:51;99443.66;;;9.21
76713;BMP280;65640;43.154;25.658;2023-12-14T05:59:16;99442.03;;;9.25
76713;BMP280;65640;43.154;25.658;2023-12-14T06:01:42;99446.28;;;9.21
76713;BMP280;65640;43.154;25.658;2023-12-14T06:04:08;99457.56;;;9.36
76713;BMP280;65640;43.154;25.658;2023-12-14T06:06:33;99459.44;;;9.49
76713;BMP280;65640;43.154;25.658;2023-12-14T06:08:58;99469.94;;;9.81
76713;BMP280;65640;43.154;25.658;2023-12-14T06:11:24;99450.63;;;9.77
76713;BMP280;65640;43.154;25.658;2023-12-14T06:13:49;99455.94;;;9.72
76713;BMP280;65640;43.154;25.658;2023-12-14T06:16:14;99452.38;;;9.68
76713;BMP280;65640;43.154;25.658;2023-12-14T06:18:40;99462.16;;;9.76
76713;BMP280;65640;43.154;25.658;2023-12-14T06:21:08;99462.38;;;9.93
76713;BMP280;65640;43.154;25.658;2023-12-14T06:23:34;99442.28;;;10.21
76713;BMP280;65640;43.154;25.658;2023-12-14T06:26:00;99454.69;;;10.16
76713;BMP280;65640;43.154;25.658;2023-12-14T06:28:28;99472.88;;;10.21
76713;BMP280;65640;43.154;25.658;2023-12-14T06:30:53;99476.97;;;10.27
76713;BMP280;65640;43.154;25.658;2023-12-14T06:33:18;99462.91;;;10.64
76713;BMP280;65640;43.154;25.658;2023-12-14T06:35:44;99462.53;;;10.70
76713;BMP280;65640;43.154;25.658;2023-12-14T06:38:09;99464.81;;;10.85
76713;BMP280;65640;43.154;25.658;2023-12-14T06:40:34;99478.00;;;10.94
76713;BMP280;65640;43.154;25.658;2023-12-14T06:43:00;99470.53;;;11.01
76713;BMP280;65640;43.154;25.658;2023-12-14T06:45:25;99481.22;;;11.05
76713;BMP280;65640;43.154;25.658;2023-12-14T06:47:50;99474.81;;;10.97
76713;BMP280;65640;43.154;25.658;2023-12-14T06:50:16;99469.19;;;11.04
76713;BMP280;65640;43.154;25.658;2023-12-14T06:52:41;99484.75;;;11.09
76713;BMP280;65640;43.154;25.658;2023-12-14T06:55:06;99485.25;;;11.11
76713;BMP280;65640;43.154;25.658;2023-12-14T06:57:32;99471.09;;;11.12
76713;BMP280;65640;43.154;25.658;2023-12-14T06:59:57;99477.38;;;11.11
76713;BMP280;65640;43.154;25.658;2023-12-14T07:02:22;99487.94;;;11.19
76713;BMP280;65640;43.154;25.658;2023-12-14T07:04:47;99486.03;;;11.34
76713;BMP280;65640;43.154;25.658;2023-12-14T07:07:13;99517.66;;;11.59
76713;BMP280;65640;43.154;25.658;2023-12-14T07:09:38;99569.38;;;12.12
76713;BMP280;65640;43.154;25.658;2023-12-14T07:12:04;99574.44;;;12.31
76713;BMP280;65640;43.154;25.658;2023-12-14T07:14:29;99589.16;;;11.51
76713;BMP280;65640;43.154;25.658;2023-12-14T07:16:54;99606.06;;;10.63
76713;BMP280;65640;43.154;25.658;2023-12-14T07:19:20;99608.78;;;10.12
76713;BMP280;65640;43.154;25.658;2023-12-14T07:21:45;99631.72;;;9.78
76713;BMP280;65640;43.154;25.658;2023-12-14T07:24:10;99617.59;;;9.60
76713;BMP280;65640;43.154;25.658;2023-12-14T07:26:35;99625.78;;;9.53
76713;BMP280;65640;43.154;25.658;2023-12-14T07:29:01;99642.59;;;9.47
76713;BMP280;65640;43.154;25.658;2023-12-14T07:31:26;99655.25;;;9.35
76713;BMP280;65640;43.154;25.658;2023-12-14T07:33:54;99650.06;;;9.06
76713;BMP280;65640;43.154;25.658;2023-12-14T07:36:19;99664.34;;;8.90
76713;BMP280;65640;43.154;25.658;2023-12-14T07:38:44;99693.53;;;8.58
76713;BMP280;65640;43.154;25.658;2023-12-14T07:41:10;99700.53;;;8.29
76713;BMP280;65640;43.154;25.658;2023-12-14T07:43:35;99704.03;;;8.09
76713;BMP280;65640;43.154;25.658;2023-12-14T07:46:00;99715.25;;;8.04
76713;BMP280;65640;43.154;25.658;2023-12-14T07:48:25;99717.97;;;7.74
76713;BMP280;65640;43.154;25.658;2023-12-14T07:50:53;99734.94;;;7.56
76713;BMP280;65640;43.154;25.658;2023-12-14T07:53:18;99737.56;;;7.51
76713;BMP280;65640;43.154;25.658;2023-12-14T07:55:44;99746.97;;;7.42
76713;BMP280;65640;43.154;25.658;2023-12-14T07:58:09;99758.41;;;7.31
76713;BMP280;65640;43.154;25.658;2023-12-14T08:00:34;99758.69;;;7.14
76713;BMP280;65640;43.154;25.658;2023-12-14T08:02:59;99751.38;;;6.96
76713;BMP280;65640;43.154;25.658;2023-12-14T08:05:25;99759.41;;;6.84
76713;BMP280;65640;43.154;25.658;2023-12-14T08:07:51;99779.19;;;6.80
76713;BMP280;65640;43.154;25.658;2023-12-14T08:10:17;99793.50;;;6.83
76713;BMP280;65640;43.154;25.658;2023-12-14T08:12:42;99792.97;;;6.76
76713;BMP280;65640;43.154;25.658;2023-12-14T08:15:08;99784.63;;;6.69
76713;BMP280;65640;43.154;25.658;2023-12-14T08:17:33;99788.25;;;6.63
76713;BMP280;65640;43.154;25.658;2023-12-14T08:19:58;99782.50;;;6.56
76713;BMP280;65640;43.154;25.658;2023-12-14T08:22:24;99793.97;;;6.65
76713;BMP280;65640;43.154;25.658;2023-12-14T08:24:49;99805.69;;;6.67
76713;BMP280;65640;43.154;25.658;2023-12-14T08:27:15;99804.66;;;6.73
76713;BMP280;65640;43.154;25.658;2023-12-14T08:29:40;99819.53;;;6.83
76713;BMP280;65640;43.154;25.658;2023-12-14T08:32:05;99807.28;;;6.88
76713;BMP280;65640;43.154;25.658;2023-12-14T08:34:31;99805.22;;;6.96
76713;BMP280;65640;43.154;25.658;2023-12-14T08:36:56;99810.44;;;7.01
76713;BMP280;65640;43.154;25.658;2023-12-14T08:39:21;99808.09;;;7.09
76713;BMP280;65640;43.154;25.658;2023-12-14T08:41:47;99802.38;;;7.12
76713;BMP280;65640;43.154;25.658;2023-12-14T08:44:13;99807.31;;;7.24
76713;BMP280;65640;43.154;25.658;2023-12-14T08:46:42;99820.59;;;7.22
76713;BMP280;65640;43.154;25.658;2023-12-14T08:49:08;99824.50;;;7.25
76713;BMP280;65640;43.154;25.658;2023-12-14T08:51:33;99838.06;;;7.22
76713;BMP280;65640;43.154;25.658;2023-12-14T08:53:58;99846.66;;;7.38
76713;BMP280;65640;43.154;25.658;2023-12-14T08:56:23;99841.19;;;7.29
76713;BMP280;65640;43.154;25.658;2023-12-14T08:58:49;99856.28;;;7.27
76713;BMP280;65640;43.154;25.658;2023-12-14T09:01:20;99858.38;;;7.30
76713;BMP280;65640;43.154;25.658;2023-12-14T09:03:48;99846.66;;;7.38
76713;BMP280;65640;43.154;25.658;2023-12-14T09:06:15;99849.50;;;7.46
76713;BMP280;65640;43.154;25.658;2023-12-14T09:08:41;99845.88;;;7.52
76713;BMP280;65640;43.154;25.658;2023-12-14T09:11:06;99845.84;;;7.67
76713;BMP280;65640;43.154;25.658;2023-12-14T09:13:31;99841.69;;;7.72
76713;BMP280;65640;43.154;25.658;2023-12-14T09:15:57;99838.56;;;7.85
76713;BMP280;65640;43.154;25.658;2023-12-14T09:18:22;99840.34;;;7.99
76713;BMP280;65640;43.154;25.658;2023-12-14T09:20:48;99832.78;;;8.08
76713;BMP280;65640;43.154;25.658;2023-12-14T09:23:15;99842.66;;;8.16
76713;BMP280;65640;43.154;25.658;2023-12-14T09:25:40;99849.41;;;8.27
76713;BMP280;65640;43.154;25.658;2023-12-14T09:28:05;99853.75;;;8.42
76713;BMP280;65640;43.154;25.658;2023-12-14T09:30:30;99849.34;;;8.48
76713;BMP280;65640;43.154;25.658;2023-12-14T09:32:56;99836.78;;;8.55
76713;BMP280;65640;43.154;25.658;2023-12-14T09:35:21;99829.41;;;8.67
76713;BMP280;65640;43.154;25.658;2023-12-14T09:37:46;99830.41;;;8.76
76713;BMP280;65640;43.154;25.658;2023-12-14T09:40:11;99824.31;;;8.91
76713;BMP280;65640;43.154;25.658;2023-12-14T09:42:37;99819.84;;;8.96
76713;BMP280;65640;43.154;25.658;2023-12-14T09:45:04;99827.84;;;9.05
76713;BMP280;65640;43.154;25.658;2023-12-14T09:47:31;99834.41;;;9.02
76713;BMP280;65640;43.154;25.658;2023-12-14T09:49:56;99837.50;;;9.04
76713;BMP280;65640;43.154;25.658;2023-12-14T09:52:21;99844.50;;;9.14
76713;BMP280;65640;43.154;25.658;2023-12-14T09:54:47;99853.06;;;9.24
76713;BMP280;65640;43.154;25.658;2023-12-14T09:57:12;99864.50;;;9.29
76713;BMP280;65640;43.154;25.658;2023-12-14T09:59:38;99870.47;;;9.34
76713;BMP280;65640;43.154;25.658;2023-12-14T10:02:09;99881.13;;;9.43
76713;BMP280;65640;43.154;25.658;2023-12-14T10:04:36;99876.94;;;9.47
76713;BMP280;65640;43.154;25.658;2023-12-14T10:07:02;99874.16;;;9.62
76713;BMP280;65640;43.154;25.658;2023-12-14T10:09:31;99892.38;;;9.72
76713;BMP280;65640;43.154;25.658;2023-12-14T10:12:04;99893.28;;;9.86
76713;BMP280;65640;43.154;25.658;2023-12-14T10:14:30;99895.44;;;9.79
76713;BMP280;65640;43.154;25.658;2023-12-14T10:16:55;99895.97;;;9.76
76713;BMP280;65640;43.154;25.658;2023-12-14T10:19:21;99894.06;;;9.87
76713;BMP280;65640;43.154;25.658;2023-12-14T10:21:46;99910.16;;;9.99
76713;BMP280;65640;43.154;25.658;2023-12-14T10:24:12;99895.47;;;10.03
76713;BMP280;65640;43.154;25.658;2023-12-14T10:26:38;99891.25;;;10.07
76713;BMP280;65640;43.154;25.658;2023-12-14T10:29:03;99893.59;;;10.09
76713;BMP280;65640;43.154;25.658;2023-12-14T10:31:30;99892.38;;;10.25
76713;BMP280;65640;43.154;25.658;2023-12-14T10:33:55;99885.59;;;10.42
76713;BMP280;65640;43.154;25.658;2023-12-14T10:36:24;99876.50;;;10.59
76713;BMP280;65640;43.154;25.658;2023-12-14T10:38:53;99889.84;;;10.81
76713;BMP280;65640;43.154;25.658;2023-12-14T10:41:21;99894.00;;;11.01
76713;BMP280;65640;43.154;25.658;2023-12-14T10:43:48;99890.16;;;11.12
76713;BMP280;65640;43.154;25.658;2023-12-14T10:46:13;99883.63;;;11.28
76713;BMP280;65640;43.154;25.658;2023-12-14T10:48:39;99882.88;;;11.41
76713;BMP280;65640;43.154;25.658;2023-12-14T10:51:09;99891.16;;;11.62
76713;BMP280;65640;43.154;25.658;2023-12-14T10:53:35;99891.84;;;11.67
76713;BMP280;65640;43.154;25.658;2023-12-14T10:56:01;99887.13;;;11.69
76713;BMP280;65640;43.154;25.658;2023-12-14T10:58:44;99893.22;;;11.65
76713;BMP280;65640;43.154;25.658;2023-12-14T11:01:13;99895.50;;;11.53
76713;BMP280;65640;43.154;25.658;2023-12-14T11:03:39;99894.16;;;11.55
76713;BMP280;65640;43.154;25.658;2023-12-14T11:06:15;99895.34;;;11.63
76713;BMP280;65640;43.154;25.658;2023-12-14T11:08:40;99892.44;;;11.64
76713;BMP280;65640;43.154;25.658;2023-12-14T11:11:06;99897.69;;;11.64
76713;BMP280;65640;43.154;25.658;2023-12-14T11:13:36;99890.38;;;11.75
76713;BMP280;65640;43.154;25.658;2023-12-14T11:16:03;99889.25;;;11.81
76713;BMP280;65640;43.154;25.658;2023-12-14T11:18:29;99899.66;;;12.00
76713;BMP280;65640;43.154;25.658;2023-12-14T11:20:55;99890.53;;;12.11
76713;BMP280;65640;43.154;25.658;2023-12-14T11:25:59;99892.88;;;12.12
76713;BMP280;65640;43.154;25.658;2023-12-14T11:28:26;99911.50;;;12.11
76713;BMP280;65640;43.154;25.658;2023-12-14T11:30:51;99902.19;;;12.05
76713;BMP280;65640;43.154;25.658;2023-12-14T11:33:17;99899.84;;;12.03
76713;BMP280;65640;43.154;25.658;2023-12-14T11:35:42;99898.50;;;12.06
76713;BMP280;65640;43.154;25.658;2023-12-14T11:38:08;99905.41;;;12.02
76713;BMP280;65640;43.154;25.658;2023-12-14T11:40:38;99912.66;;;12.05
76713;BMP280;65640;43.154;25.658;2023-12-14T11:43:04;99913.44;;;12.05
76713;BMP280;65640;43.154;25.658;2023-12-14T11:45:32;99915.22;;;12.10
76713;BMP280;65640;43.154;25.658;2023-12-14T11:47:58;99899.09;;;12.17
76713;BMP280;65640;43.154;25.658;2023-12-14T11:50:23;99901.63;;;12.08
76713;BMP280;65640;43.154;25.658;2023-12-14T11:52:49;99888.59;;;12.17
76713;BMP280;65640;43.154;25.658;2023-12-14T11:55:14;99905.28;;;12.21
76713;BMP280;65640;43.154;25.658;2023-12-14T11:57:45;99901.22;;;12.28
76713;BMP280;65640;43.154;25.658;2023-12-14T12:00:10;99895.56;;;12.35
76713;BMP280;65640;43.154;25.658;2023-12-14T12:02:36;99902.66;;;12.34
76713;BMP280;65640;43.154;25.658;2023-12-14T12:05:01;99909.66;;;12.39
76713;BMP280;65640;43.154;25.658;2023-12-14T12:07:26;99906.75;;;12.40
76713;BMP280;65640;43.154;25.658;2023-12-14T12:09:52;99907.22;;;12.42
76713;BMP280;65640;43.154;25.658;2023-12-14T12:12:17;99910.50;;;12.48
76713;BMP280;65640;43.154;25.658;2023-12-14T12:14:42;99897.66;;;12.46
76713;BMP280;65640;43.154;25.658;2023-12-14T12:17:08;99902.63;;;12.48
76713;BMP280;65640;43.154;25.658;2023-12-14T12:19:33;99903.00;;;12.55
76713;BMP280;65640;43.154;25.658;2023-12-14T12:21:59;99904.47;;;12.61
76713;BMP280;65640;43.154;25.658;2023-12-14T12:24:25;99919.25;;;12.57
76713;BMP280;65640;43.154;25.658;2023-12-14T12:26:50;99922.28;;;12.50
76713;BMP280;65640;43.154;25.658;2023-12-14T12:29:15;99932.69;;;12.55
76713;BMP280;65640;43.154;25.658;2023-12-14T12:31:41;99930.72;;;12.61
76713;BMP280;65640;43.154;25.658;2023-12-14T12:34:07;99931.13;;;12.54
76713;BMP280;65640;43.154;25.658;2023-12-14T12:36:34;99934.63;;;12.50
76713;BMP280;65640;43.154;25.658;2023-12-14T12:39:00;99939.09;;;12.49
76713;BMP280;65640;43.154;25.658;2023-12-14T12:41:25;99937.81;;;12.47
76713;BMP280;65640;43.154;25.658;2023-12-14T12:43:50;99938.31;;;12.49
76713;BMP280;65640;43.154;25.658;2023-12-14T12:46:16;99941.03;;;12.44
76713;BMP280;65640;43.154;25.658;2023-12-14T12:48:41;99949.22;;;12.42
76713;BMP280;65640;43.154;25.658;2023-12-14T12:51:06;99945.34;;;12.40
76713;BMP280;65640;43.154;25.658;2023-12-14T12:53:32;99943.03;;;12.38
76713;BMP280;65640;43.154;25.658;2023-12-14T12:55:58;99942.72;;;12.40
76713;BMP280;65640;43.154;25.658;2023-12-14T12:58:23;99947.06;;;12.44
76713;BMP280;65640;43.154;25.658;2023-12-14T13:00:48;99950.91;;;12.38
76713;BMP280;65640;43.154;25.658;2023-12-14T13:03:14;99960.69;;;12.33
76713;BMP280;65640;43.154;25.658;2023-12-14T13:05:39;99962.75;;;12.36
76713;BMP280;65640;43.154;25.658;2023-12-14T13:08:04;99978.22;;;12.37
76713;BMP280;65640;43.154;25.658;2023-12-14T13:10:30;99980.91;;;12.32
76713;BMP280;65640;43.154;25.658;2023-12-14T13:12:55;99972.94;;;12.10
76713;BMP280;65640;43.154;25.658;2023-12-14T13:15:22;99973.66;;;11.97
76713;BMP280;65640;43.154;25.658;2023-12-14T13:17:49;99966.16;;;11.77
76713;BMP280;65640;43.154;25.658;2023-12-14T13:20:14;99967.06;;;11.72
76713;BMP280;65640;43.154;25.658;2023-12-14T13:22:40;99973.34;;;11.71
76713;BMP280;65640;43.154;25.658;2023-12-14T13:25:05;99987.38;;;11.61
76713;BMP280;65640;43.154;25.658;2023-12-14T13:27:30;99986.47;;;11.52
76713;BMP280;65640;43.154;25.658;2023-12-14T13:29:56;99981.91;;;11.44
76713;BMP280;65640;43.154;25.658;2023-12-14T13:32:22;99985.59;;;11.43
76713;BMP280;65640;43.154;25.658;2023-12-14T13:34:47;99986.78;;;11.32
76713;BMP280;65640;43.154;25.658;2023-12-14T13:37:12;99983.03;;;11.19
76713;BMP280;65640;43.154;25.658;2023-12-14T13:39:38;99981.84;;;11.12
76713;BMP280;65640;43.154;25.658;2023-12-14T13:42:06;99978.81;;;11.05
76713;BMP280;65640;43.154;25.658;2023-12-14T13:44:32;99990.69;;;10.97
76713;BMP280;65640;43.154;25.658;2023-12-14T13:46:59;99989.41;;;10.95
76713;BMP280;65640;43.154;25.658;2023-12-14T13:49:26;99991.66;;;10.82
76713;BMP280;65640;43.154;25.658;2023-12-14T13:51:51;99986.97;;;10.79
76713;BMP280;65640;43.154;25.658;2023-12-14T13:54:17;99990.75;;;10.68
76713;BMP280;65640;43.154;25.658;2023-12-14T13:56:42;99988.97;;;10.64